sensor_id;sensor_type;location;lat;lon;timestamp;temperature;humidity
43520;DHT22;46848;51.980;5.918;2023-04-03T00:01:31;6.70;65.70
43520;DHT22;46848;51.980;5.918;2023-04-03T00:03:57;6.60;65.60
43520;DHT22;46848;51.980;5.918;2023-04-03T00:06:23;6.60;65.70
43520;DHT22;46848;51.980;5.918;2023-04-03T00:08:49;6.50;65.60
43520;DHT22;46848;51.980;5.918;2023-04-03T00:11:15;6.60;65.70
43520;DHT22;46848;51.980;5.918;2023-04-03T00:13:42;6.50;65.70
43520;DHT22;46848;51.980;5.918;2023-04-03T00:16:08;6.50;65.80
43520;DHT22;46848;51.980;5.918;2023-04-03T00:18:36;6.60;65.80
43520;DHT22;46848;51.980;5.918;2023-04-03T00:21:02;6.50;65.80
43520;DHT22;46848;51.980;5.918;2023-04-03T00:23:29;6.50;66.00
43520;DHT22;46848;51.980;5.918;2023-04-03T00:25:56;6.50;66.10
43520;DHT22;46848;51.980;5.918;2023-04-03T00:28:22;6.50;66.20
43520;DHT22;46848;51.980;5.918;2023-04-03T00:30:51;6.50;66.30
43520;DHT22;46848;51.980;5.918;2023-04-03T00:33:17;6.50;66.40
43520;DHT22;46848;51.980;5.918;2023-04-03T00:35:43;6.40;66.40
43520;DHT22;46848;51.980;5.918;2023-04-03T00:38:09;6.40;66.60
43520;DHT22;46848;51.980;5.918;2023-04-03T00:40:38;6.40;66.90
43520;DHT22;46848;51.980;5.918;2023-04-03T00:43:15;6.40;66.70
43520;DHT22;46848;51.980;5.918;2023-04-03T00:45:43;6.40;66.70
43520;DHT22;46848;51.980;5.918;2023-04-03T00:48:13;6.40;66.90
43520;DHT22;46848;51.980;5.918;2023-04-03T00:50:41;6.30;67.00
43520;DHT22;46848;51.980;5.918;2023-04-03T00:53:12;6.20;67.30
43520;DHT22;46848;51.980;5.918;2023-04-03T00:55:39;6.20;67.60
43520;DHT22;46848;51.980;5.918;2023-04-03T00:58:07;6.20;67.90
43520;DHT22;46848;51.980;5.918;2023-04-03T01:00:34;6.20;68.00
43520;DHT22;46848;51.980;5.918;2023-04-03T01:03:01;6.10;68.20
43520;DHT22;46848;51.980;5.918;2023-04-03T01:05:27;6.00;68.40
43520;DHT22;46848;51.980;5.918;2023-04-03T01:07:53;6.00;68.40
43520;DHT22;46848;51.980;5.918;2023-04-03T01:10:19;6.00;68.50
43520;DHT22;46848;51.980;5.918;2023-04-03T01:12:48;6.00;68.70
43520;DHT22;46848;51.980;5.918;2023-04-03T01:15:22;6.00;68.60
43520;DHT22;46848;51.980;5.918;2023-04-03T01:17:58;6.00;68.60
43520;DHT22;46848;51.980;5.918;2023-04-03T01:25:28;6.10;68.90
43520;DHT22;46848;51.980;5.918;2023-04-03T01:27:54;6.10;68.80
43520;DHT22;46848;51.980;5.918;2023-04-03T01:30:21;6.20;69.00
43520;DHT22;46848;51.980;5.918;2023-04-03T01:32:50;6.10;69.10
43520;DHT22;46848;51.980;5.918;2023-04-03T01:35:16;6.10;69.10
43520;DHT22;46848;51.980;5.918;2023-04-03T01:37:41;6.00;69.30
43520;DHT22;46848;51.980;5.918;2023-04-03T01:40:07;6.00;69.60
43520;DHT22;46848;51.980;5.918;2023-04-03T01:42:33;5.90;69.90
43520;DHT22;46848;51.980;5.918;2023-04-03T01:44:59;5.90;70.00
43520;DHT22;46848;51.980;5.918;2023-04-03T01:47:25;5.80;70.40
43520;DHT22;46848;51.980;5.918;2023-04-03T01:49:50;5.80;70.40
43520;DHT22;46848;51.980;5.918;2023-04-03T01:52:16;5.80;71.50
43520;DHT22;46848;51.980;5.918;2023-04-03T01:54:41;5.70;70.80
43520;DHT22;46848;51.980;5.918;2023-04-03T01:57:07;5.80;70.70
43520;DHT22;46848;51.980;5.918;2023-04-03T01:59:33;5.80;70.80
43520;DHT22;46848;51.980;5.918;2023-04-03T02:01:58;5.80;71.10
43520;DHT22;46848;51.980;5.918;2023-04-03T02:04:24;5.80;71.10
43520;DHT22;46848;51.980;5.918;2023-04-03T02:06:49;5.70;71.10
43520;DHT22;46848;51.980;5.918;2023-04-03T02:09:15;5.70;71.00
43520;DHT22;46848;51.980;5.918;2023-04-03T02:11:41;5.70;71.50
43520;DHT22;46848;51.980;5.918;2023-04-03T02:14:06;5.70;71.40
43520;DHT22;46848;51.980;5.918;2023-04-03T02:16:32;5.70;71.70
43520;DHT22;46848;51.980;5.918;2023-04-03T02:18:58;5.70;71.80
43520;DHT22;46848;51.980;5.918;2023-04-03T02:21:24;5.60;71.80
43520;DHT22;46848;51.980;5.918;2023-04-03T02:23:49;5.60;71.70
43520;DHT22;46848;51.980;5.918;2023-04-03T02:26:16;5.60;71.60
43520;DHT22;46848;51.980;5.918;2023-04-03T02:28:42;5.60;71.80
43520;DHT22;46848;51.980;5.918;2023-04-03T02:31:10;5.70;71.70
43520;DHT22;46848;51.980;5.918;2023-04-03T02:33:36;5.70;71.80
43520;DHT22;46848;51.980;5.918;2023-04-03T02:36:03;5.70;71.80
43520;DHT22;46848;51.980;5.918;2023-04-03T02:38:29;5.60;72.00
43520;DHT22;46848;51.980;5.918;2023-04-03T02:41:00;5.60;72.00
43520;DHT22;46848;51.980;5.918;2023-04-03T02:43:26;5.60;72.30
43520;DHT22;46848;51.980;5.918;2023-04-03T02:45:52;5.60;72.40
43520;DHT22;46848;51.980;5.918;2023-04-03T02:48:17;5.50;72.50
43520;DHT22;46848;51.980;5.918;2023-04-03T02:50:43;5.50;72.30
43520;DHT22;46848;51.980;5.918;2023-04-03T02:53:08;5.50;72.50
43520;DHT22;46848;51.980;5.918;2023-04-03T02:55:34;5.50;72.60
43520;DHT22;46848;51.980;5.918;2023-04-03T02:58:00;5.50;72.70
43520;DHT22;46848;51.980;5.918;2023-04-03T03:00:26;5.40;72.90
43520;DHT22;46848;51.980;5.918;2023-04-03T03:02:53;5.40;72.90
43520;DHT22;46848;51.980;5.918;2023-04-03T03:05:21;5.40;73.10
43520;DHT22;46848;51.980;5.918;2023-04-03T03:07:47;5.40;73.10
43520;DHT22;46848;51.980;5.918;2023-04-03T03:10:13;5.40;73.20
43520;DHT22;46848;51.980;5.918;2023-04-03T03:12:38;5.40;73.40
43520;DHT22;46848;51.980;5.918;2023-04-03T03:15:06;5.40;73.40
43520;DHT22;46848;51.980;5.918;2023-04-03T03:17:32;5.30;73.60
43520;DHT22;46848;51.980;5.918;2023-04-03T03:19:57;5.30;73.70
43520;DHT22;46848;51.980;5.918;2023-04-03T03:22:23;5.20;73.70
43520;DHT22;46848;51.980;5.918;2023-04-03T03:24:49;5.20;73.70
43520;DHT22;46848;51.980;5.918;2023-04-03T03:27:14;5.20;73.70
43520;DHT22;46848;51.980;5.918;2023-04-03T03:29:41;5.20;73.70
43520;DHT22;46848;51.980;5.918;2023-04-03T03:32:07;5.20;73.70
43520;DHT22;46848;51.980;5.918;2023-04-03T03:34:33;5.20;73.60
43520;DHT22;46848;51.980;5.918;2023-04-03T03:36:58;5.20;73.80
43520;DHT22;46848;51.980;5.918;2023-04-03T03:39:24;5.10;73.80
43520;DHT22;46848;51.980;5.918;2023-04-03T03:41:50;5.20;73.80
43520;DHT22;46848;51.980;5.918;2023-04-03T03:44:15;5.10;73.90
43520;DHT22;46848;51.980;5.918;2023-04-03T03:46:41;5.10;74.00
43520;DHT22;46848;51.980;5.918;2023-04-03T03:49:07;5.10;74.10
43520;DHT22;46848;51.980;5.918;2023-04-03T03:51:32;5.00;74.20
43520;DHT22;46848;51.980;5.918;2023-04-03T03:53:58;4.90;74.70
43520;DHT22;46848;51.980;5.918;2023-04-03T03:56:23;4.90;74.70
43520;DHT22;46848;51.980;5.918;2023-04-03T03:58:49;4.90;74.60
43520;DHT22;46848;51.980;5.918;2023-04-03T04:01:15;4.90;74.70
43520;DHT22;46848;51.980;5.918;2023-04-03T04:03:42;4.90;74.60
43520;DHT22;46848;51.980;5.918;2023-04-03T04:06:07;4.90;74.50
43520;DHT22;46848;51.980;5.918;2023-04-03T04:08:33;4.90;74.40
43520;DHT22;46848;51.980;5.918;2023-04-03T04:10:58;4.90;74.40
43520;DHT22;46848;51.980;5.918;2023-04-03T04:13:24;4.90;74.40
43520;DHT22;46848;51.980;5.918;2023-04-03T04:15:50;4.80;74.50
43520;DHT22;46848;51.980;5.918;2023-04-03T04:18:15;4.80;74.70
43520;DHT22;46848;51.980;5.918;2023-04-03T04:20:41;4.80;74.60
43520;DHT22;46848;51.980;5.918;2023-04-03T04:23:06;4.80;74.60
43520;DHT22;46848;51.980;5.918;2023-04-03T04:25:32;4.70;74.60
43520;DHT22;46848;51.980;5.918;2023-04-03T04:27:58;4.70;74.90
43520;DHT22;46848;51.980;5.918;2023-04-03T04:30:24;4.70;75.00
43520;DHT22;46848;51.980;5.918;2023-04-03T04:32:49;4.70;75.00
43520;DHT22;46848;51.980;5.918;2023-04-03T04:35:15;4.70;75.10
43520;DHT22;46848;51.980;5.918;2023-04-03T04:37:41;4.60;75.10
43520;DHT22;46848;51.980;5.918;2023-04-03T04:40:07;4.60;75.00
43520;DHT22;46848;51.980;5.918;2023-04-03T04:42:32;4.60;75.00
43520;DHT22;46848;51.980;5.918;2023-04-03T04:44:58;4.60;75.10
43520;DHT22;46848;51.980;5.918;2023-04-03T04:47:24;4.50;75.20
43520;DHT22;46848;51.980;5.918;2023-04-03T04:49:49;4.50;75.30
43520;DHT22;46848;51.980;5.918;2023-04-03T04:52:15;4.40;75.30
43520;DHT22;46848;51.980;5.918;2023-04-03T04:54:41;4.50;75.20
43520;DHT22;46848;51.980;5.918;2023-04-03T04:57:06;4.50;75.10
43520;DHT22;46848;51.980;5.918;2023-04-03T04:59:32;4.50;75.00
43520;DHT22;46848;51.980;5.918;2023-04-03T05:01:58;4.50;75.00
43520;DHT22;46848;51.980;5.918;2023-04-03T05:04:23;4.40;75.00
43520;DHT22;46848;51.980;5.918;2023-04-03T05:06:49;4.30;75.20
43520;DHT22;46848;51.980;5.918;2023-04-03T05:09:15;4.30;75.20
43520;DHT22;46848;51.980;5.918;2023-04-03T05:11:41;4.30;75.30
43520;DHT22;46848;51.980;5.918;2023-04-03T05:14:08;4.20;75.30
43520;DHT22;46848;51.980;5.918;2023-04-03T05:16:33;4.20;75.30
43520;DHT22;46848;51.980;5.918;2023-04-03T05:19:00;4.20;75.20
43520;DHT22;46848;51.980;5.918;2023-04-03T05:21:25;4.20;75.30
43520;DHT22;46848;51.980;5.918;2023-04-03T05:23:51;4.10;75.20
43520;DHT22;46848;51.980;5.918;2023-04-03T05:26:17;4.10;75.40
43520;DHT22;46848;51.980;5.918;2023-04-03T05:28:43;4.00;75.40
43520;DHT22;46848;51.980;5.918;2023-04-03T05:31:08;4.10;75.30
43520;DHT22;46848;51.980;5.918;2023-04-03T05:33:34;4.10;75.20
43520;DHT22;46848;51.980;5.918;2023-04-03T05:36:06;4.10;75.10
43520;DHT22;46848;51.980;5.918;2023-04-03T05:38:32;4.10;75.10
43520;DHT22;46848;51.980;5.918;2023-04-03T05:40:58;4.10;75.00
43520;DHT22;46848;51.980;5.918;2023-04-03T05:43:23;4.10;75.20
43520;DHT22;46848;51.980;5.918;2023-04-03T05:45:50;4.10;75.30
43520;DHT22;46848;51.980;5.918;2023-04-03T05:48:16;4.10;75.00
43520;DHT22;46848;51.980;5.918;2023-04-03T05:50:42;4.20;75.60
43520;DHT22;46848;51.980;5.918;2023-04-03T05:53:15;4.30;74.80
43520;DHT22;46848;51.980;5.918;2023-04-03T05:55:43;4.30;74.40
43520;DHT22;46848;51.980;5.918;2023-04-03T05:58:08;4.30;74.00
43520;DHT22;46848;51.980;5.918;2023-04-03T06:00:34;4.30;74.20
43520;DHT22;46848;51.980;5.918;2023-04-03T06:03:00;4.40;74.50
43520;DHT22;46848;51.980;5.918;2023-04-03T06:05:25;4.40;74.10
43520;DHT22;46848;51.980;5.918;2023-04-03T06:07:51;4.50;74.10
43520;DHT22;46848;51.980;5.918;2023-04-03T06:10:16;4.50;73.40
43520;DHT22;46848;51.980;5.918;2023-04-03T06:12:42;4.70;73.50
43520;DHT22;46848;51.980;5.918;2023-04-03T06:15:08;4.80;73.00
43520;DHT22;46848;51.980;5.918;2023-04-03T06:17:36;4.90;72.80
43520;DHT22;46848;51.980;5.918;2023-04-03T06:20:03;5.10;72.10
43520;DHT22;46848;51.980;5.918;2023-04-03T06:22:29;5.30;71.60
43520;DHT22;46848;51.980;5.918;2023-04-03T06:24:56;5.50;71.40
43520;DHT22;46848;51.980;5.918;2023-04-03T06:27:22;5.70;70.20
43520;DHT22;46848;51.980;5.918;2023-04-03T06:29:47;5.90;69.30
43520;DHT22;46848;51.980;5.918;2023-04-03T06:32:14;6.10;69.00
43520;DHT22;46848;51.980;5.918;2023-04-03T06:34:40;6.40;68.70
43520;DHT22;46848;51.980;5.918;2023-04-03T06:37:10;6.80;69.40
43520;DHT22;46848;51.980;5.918;2023-04-03T06:39:36;7.20;67.60
43520;DHT22;46848;51.980;5.918;2023-04-03T06:42:01;7.50;66.00
43520;DHT22;46848;51.980;5.918;2023-04-03T06:44:27;7.70;64.70
43520;DHT22;46848;51.980;5.918;2023-04-03T06:46:53;7.90;64.80
43520;DHT22;46848;51.980;5.918;2023-04-03T06:49:19;8.20;63.70
43520;DHT22;46848;51.980;5.918;2023-04-03T06:51:45;8.50;62.60
43520;DHT22;46848;51.980;5.918;2023-04-03T06:54:10;8.60;61.20
43520;DHT22;46848;51.980;5.918;2023-04-03T06:56:37;8.60;59.70
43520;DHT22;46848;51.980;5.918;2023-04-03T06:59:02;8.60;60.90
43520;DHT22;46848;51.980;5.918;2023-04-03T07:01:29;8.80;60.50
43520;DHT22;46848;51.980;5.918;2023-04-03T07:03:55;9.00;59.80
43520;DHT22;46848;51.980;5.918;2023-04-03T07:06:21;8.90;59.20
43520;DHT22;46848;51.980;5.918;2023-04-03T07:08:47;9.10;58.80
43520;DHT22;46848;51.980;5.918;2023-04-03T07:11:14;9.10;58.10
43520;DHT22;46848;51.980;5.918;2023-04-03T07:13:40;9.30;59.10
43520;DHT22;46848;51.980;5.918;2023-04-03T07:16:06;9.50;59.30
43520;DHT22;46848;51.980;5.918;2023-04-03T07:18:32;9.90;58.20
43520;DHT22;46848;51.980;5.918;2023-04-03T07:20:58;10.20;59.20
43520;DHT22;46848;51.980;5.918;2023-04-03T07:23:24;10.60;59.10
43520;DHT22;46848;51.980;5.918;2023-04-03T07:25:51;10.90;58.00
43520;DHT22;46848;51.980;5.918;2023-04-03T07:28:18;11.00;56.10
43520;DHT22;46848;51.980;5.918;2023-04-03T07:31:04;11.00;56.40
43520;DHT22;46848;51.980;5.918;2023-04-03T07:33:32;11.00;55.10
43520;DHT22;46848;51.980;5.918;2023-04-03T07:35:58;11.00;53.40
43520;DHT22;46848;51.980;5.918;2023-04-03T07:38:24;10.90;55.30
43520;DHT22;46848;51.980;5.918;2023-04-03T07:40:52;11.00;54.20
43520;DHT22;46848;51.980;5.918;2023-04-03T07:43:19;11.10;54.60
43520;DHT22;46848;51.980;5.918;2023-04-03T07:45:45;11.30;56.50
43520;DHT22;46848;51.980;5.918;2023-04-03T07:48:12;11.40;55.90
43520;DHT22;46848;51.980;5.918;2023-04-03T07:50:41;11.60;54.40
43520;DHT22;46848;51.980;5.918;2023-04-03T07:53:07;11.70;54.20
43520;DHT22;46848;51.980;5.918;2023-04-03T07:55:33;11.90;55.90
43520;DHT22;46848;51.980;5.918;2023-04-03T07:57:59;12.20;53.90
43520;DHT22;46848;51.980;5.918;2023-04-03T08:00:24;12.50;54.60
43520;DHT22;46848;51.980;5.918;2023-04-03T08:02:50;12.60;54.70
43520;DHT22;46848;51.980;5.918;2023-04-03T08:05:20;12.80;52.20
43520;DHT22;46848;51.980;5.918;2023-04-03T08:07:47;12.70;53.20
43520;DHT22;46848;51.980;5.918;2023-04-03T08:10:14;13.00;54.10
43520;DHT22;46848;51.980;5.918;2023-04-03T08:12:40;13.30;54.90
43520;DHT22;46848;51.980;5.918;2023-04-03T08:15:06;13.70;55.20
43520;DHT22;46848;51.980;5.918;2023-04-03T08:17:33;14.00;55.00
43520;DHT22;46848;51.980;5.918;2023-04-03T08:19:59;14.20;52.00
43520;DHT22;46848;51.980;5.918;2023-04-03T08:22:25;14.20;49.90
43520;DHT22;46848;51.980;5.918;2023-04-03T08:24:51;14.20;52.70
43520;DHT22;46848;51.980;5.918;2023-04-03T08:27:17;14.20;53.30
43520;DHT22;46848;51.980;5.918;2023-04-03T08:29:43;14.40;51.80
43520;DHT22;46848;51.980;5.918;2023-04-03T08:32:08;14.20;46.30
43520;DHT22;46848;51.980;5.918;2023-04-03T08:34:34;13.90;46.40
43520;DHT22;46848;51.980;5.918;2023-04-03T08:37:02;13.60;48.20
43520;DHT22;46848;51.980;5.918;2023-04-03T08:39:28;13.50;45.40
43520;DHT22;46848;51.980;5.918;2023-04-03T08:41:56;13.20;47.40
43520;DHT22;46848;51.980;5.918;2023-04-03T08:44:46;13.30;49.90
43520;DHT22;46848;51.980;5.918;2023-04-03T08:49:59;13.70;51.80
43520;DHT22;46848;51.980;5.918;2023-04-03T08:52:36;13.70;48.00
43520;DHT22;46848;51.980;5.918;2023-04-03T08:57:44;14.00;49.40
43520;DHT22;46848;51.980;5.918;2023-04-03T09:02:45;14.00;47.50
43520;DHT22;46848;51.980;5.918;2023-04-03T09:05:20;14.10;48.90
43520;DHT22;46848;51.980;5.918;2023-04-03T09:10:51;14.40;45.70
43520;DHT22;46848;51.980;5.918;2023-04-03T09:16:00;14.60;47.60
43520;DHT22;46848;51.980;5.918;2023-04-03T09:18:28;14.70;40.50
43520;DHT22;46848;51.980;5.918;2023-04-03T09:23:37;14.40;39.30
43520;DHT22;46848;51.980;5.918;2023-04-03T09:26:13;14.10;39.80
43520;DHT22;46848;51.980;5.918;2023-04-03T09:28:40;13.90;39.40
43520;DHT22;46848;51.980;5.918;2023-04-03T09:31:23;13.80;38.70
43520;DHT22;46848;51.980;5.918;2023-04-03T09:33:50;13.70;42.60
43520;DHT22;46848;51.980;5.918;2023-04-03T09:36:37;13.90;43.10
43520;DHT22;46848;51.980;5.918;2023-04-03T09:39:11;14.00;38.00
43520;DHT22;46848;51.980;5.918;2023-04-03T09:41:37;14.00;36.60
43520;DHT22;46848;51.980;5.918;2023-04-03T09:44:04;13.90;43.30
43520;DHT22;46848;51.980;5.918;2023-04-03T09:46:43;14.20;45.80
43520;DHT22;46848;51.980;5.918;2023-04-03T09:49:11;14.50;39.00
43520;DHT22;46848;51.980;5.918;2023-04-03T09:51:37;14.30;41.30
43520;DHT22;46848;51.980;5.918;2023-04-03T09:56:53;14.40;33.70
43520;DHT22;46848;51.980;5.918;2023-04-03T09:59:21;14.20;41.60
43520;DHT22;46848;51.980;5.918;2023-04-03T10:01:58;14.20;37.80
43520;DHT22;46848;51.980;5.918;2023-04-03T10:04:24;14.20;37.00
43520;DHT22;46848;51.980;5.918;2023-04-03T10:06:56;14.00;38.50
43520;DHT22;46848;51.980;5.918;2023-04-03T10:09:23;14.10;37.20
43520;DHT22;46848;51.980;5.918;2023-04-03T10:12:04;14.20;36.30
43520;DHT22;46848;51.980;5.918;2023-04-03T10:14:34;14.30;37.30
43520;DHT22;46848;51.980;5.918;2023-04-03T10:20:39;13.90;34.80
43520;DHT22;46848;51.980;5.918;2023-04-03T10:23:26;13.60;32.30
43520;DHT22;46848;51.980;5.918;2023-04-03T10:26:10;13.60;37.50
43520;DHT22;46848;51.980;5.918;2023-04-03T10:28:57;13.70;34.00
43520;DHT22;46848;51.980;5.918;2023-04-03T10:37:01;13.30;32.10
43520;DHT22;46848;51.980;5.918;2023-04-03T10:42:23;12.60;32.10
43520;DHT22;46848;51.980;5.918;2023-04-03T10:53:08;12.60;35.40
43520;DHT22;46848;51.980;5.918;2023-04-03T10:58:34;12.80;35.40
43520;DHT22;46848;51.980;5.918;2023-04-03T11:01:11;13.10;38.00
43520;DHT22;46848;51.980;5.918;2023-04-03T11:03:42;13.10;33.10
43520;DHT22;46848;51.980;5.918;2023-04-03T11:06:11;13.00;34.50
43520;DHT22;46848;51.980;5.918;2023-04-03T11:11:32;13.00;34.60
43520;DHT22;46848;51.980;5.918;2023-04-03T11:14:05;13.00;36.10
43520;DHT22;46848;51.980;5.918;2023-04-03T11:16:40;13.10;37.70
43520;DHT22;46848;51.980;5.918;2023-04-03T11:21:55;13.30;32.00
43520;DHT22;46848;51.980;5.918;2023-04-03T11:24:25;13.40;33.90
43520;DHT22;46848;51.980;5.918;2023-04-03T11:26:53;13.10;32.30
43520;DHT22;46848;51.980;5.918;2023-04-03T11:29:23;12.90;33.10
43520;DHT22;46848;51.980;5.918;2023-04-03T11:34:34;12.50;33.40
43520;DHT22;46848;51.980;5.918;2023-04-03T11:37:05;12.40;32.50
43520;DHT22;46848;51.980;5.918;2023-04-03T11:39:37;12.40;33.70
43520;DHT22;46848;51.980;5.918;2023-04-03T11:42:39;12.50;34.10
43520;DHT22;46848;51.980;5.918;2023-04-03T11:50:46;12.90;34.80
43520;DHT22;46848;51.980;5.918;2023-04-03T11:58:25;12.80;35.10
43520;DHT22;46848;51.980;5.918;2023-04-03T12:19:04;13.20;34.00
43520;DHT22;46848;51.980;5.918;2023-04-03T12:29:21;13.60;33.90
43520;DHT22;46848;51.980;5.918;2023-04-03T12:32:34;13.60;33.90
43520;DHT22;46848;51.980;5.918;2023-04-03T12:43:22;13.40;34.40
43520;DHT22;46848;51.980;5.918;2023-04-03T12:48:54;13.80;35.10
43520;DHT22;46848;51.980;5.918;2023-04-03T12:51:43;13.80;33.50
43520;DHT22;46848;51.980;5.918;2023-04-03T12:54:23;13.70;32.70
43520;DHT22;46848;51.980;5.918;2023-04-03T12:56:51;13.80;34.90
43520;DHT22;46848;51.980;5.918;2023-04-03T12:59:25;14.00;35.20
43520;DHT22;46848;51.980;5.918;2023-04-03T13:02:01;14.10;34.60
43520;DHT22;46848;51.980;5.918;2023-04-03T13:04:28;14.10;33.50
43520;DHT22;46848;51.980;5.918;2023-04-03T13:06:54;14.00;32.90
43520;DHT22;46848;51.980;5.918;2023-04-03T13:11:52;13.60;33.70
43520;DHT22;46848;51.980;5.918;2023-04-03T13:14:22;13.40;33.30
43520;DHT22;46848;51.980;5.918;2023-04-03T13:17:00;13.30;33.80
43520;DHT22;46848;51.980;5.918;2023-04-03T13:19:29;13.30;33.60
43520;DHT22;46848;51.980;5.918;2023-04-03T13:24:29;13.30;35.00
43520;DHT22;46848;51.980;5.918;2023-04-03T13:26:56;13.40;34.20
43520;DHT22;46848;51.980;5.918;2023-04-03T13:29:31;13.60;34.80
43520;DHT22;46848;51.980;5.918;2023-04-03T13:31:58;13.70;33.70
43520;DHT22;46848;51.980;5.918;2023-04-03T13:34:26;13.60;33.20
43520;DHT22;46848;51.980;5.918;2023-04-03T13:39:23;13.50;34.40
43520;DHT22;46848;51.980;5.918;2023-04-03T13:41:57;13.50;35.70
43520;DHT22;46848;51.980;5.918;2023-04-03T13:46:53;13.60;33.90
43520;DHT22;46848;51.980;5.918;2023-04-03T13:49:40;13.50;34.40
43520;DHT22;46848;51.980;5.918;2023-04-03T13:52:28;13.70;34.10
43520;DHT22;46848;51.980;5.918;2023-04-03T13:54:57;13.80;34.80
43520;DHT22;46848;51.980;5.918;2023-04-03T13:57:23;13.70;34.90
43520;DHT22;46848;51.980;5.918;2023-04-03T13:59:49;13.80;35.50
43520;DHT22;46848;51.980;5.918;2023-04-03T14:02:22;13.80;36.30
43520;DHT22;46848;51.980;5.918;2023-04-03T14:04:57;13.80;35.90
43520;DHT22;46848;51.980;5.918;2023-04-03T14:07:26;13.70;35.30
43520;DHT22;46848;51.980;5.918;2023-04-03T14:09:52;13.80;34.80
43520;DHT22;46848;51.980;5.918;2023-04-03T14:12:26;13.70;35.30
43520;DHT22;46848;51.980;5.918;2023-04-03T14:14:52;13.80;36.00
43520;DHT22;46848;51.980;5.918;2023-04-03T14:17:21;13.80;34.80
43520;DHT22;46848;51.980;5.918;2023-04-03T14:19:49;13.80;34.30
43520;DHT22;46848;51.980;5.918;2023-04-03T14:22:22;13.80;34.90
43520;DHT22;46848;51.980;5.918;2023-04-03T14:24:49;13.80;34.50
43520;DHT22;46848;51.980;5.918;2023-04-03T14:29:45;13.80;34.90
43520;DHT22;46848;51.980;5.918;2023-04-03T14:32:13;13.60;35.10
43520;DHT22;46848;51.980;5.918;2023-04-03T14:34:40;13.50;36.00
43520;DHT22;46848;51.980;5.918;2023-04-03T14:37:10;13.50;36.00
43520;DHT22;46848;51.980;5.918;2023-04-03T14:39:36;13.50;36.70
43520;DHT22;46848;51.980;5.918;2023-04-03T14:42:02;13.40;36.00
43520;DHT22;46848;51.980;5.918;2023-04-03T14:44:28;13.40;36.90
43520;DHT22;46848;51.980;5.918;2023-04-03T14:46:53;13.40;36.40
43520;DHT22;46848;51.980;5.918;2023-04-03T14:49:22;13.40;37.10
43520;DHT22;46848;51.980;5.918;2023-04-03T14:51:48;13.40;36.90
43520;DHT22;46848;51.980;5.918;2023-04-03T14:54:19;13.30;37.80
43520;DHT22;46848;51.980;5.918;2023-04-03T14:56:47;13.30;37.40
43520;DHT22;46848;51.980;5.918;2023-04-03T14:59:14;13.30;37.70
43520;DHT22;46848;51.980;5.918;2023-04-03T15:01:41;13.20;38.00
43520;DHT22;46848;51.980;5.918;2023-04-03T15:04:17;13.20;37.40
43520;DHT22;46848;51.980;5.918;2023-04-03T15:06:44;13.10;37.90
43520;DHT22;46848;51.980;5.918;2023-04-03T15:09:23;13.20;38.70
43520;DHT22;46848;51.980;5.918;2023-04-03T15:11:50;13.20;37.50
43520;DHT22;46848;51.980;5.918;2023-04-03T15:14:16;12.80;38.40
43520;DHT22;46848;51.980;5.918;2023-04-03T15:16:42;12.70;39.10
43520;DHT22;46848;51.980;5.918;2023-04-03T15:19:08;12.80;38.80
43520;DHT22;46848;51.980;5.918;2023-04-03T15:21:34;12.80;38.60
43520;DHT22;46848;51.980;5.918;2023-04-03T15:23:59;12.70;38.70
43520;DHT22;46848;51.980;5.918;2023-04-03T15:26:25;12.70;37.60
43520;DHT22;46848;51.980;5.918;2023-04-03T15:28:51;12.60;38.90
43520;DHT22;46848;51.980;5.918;2023-04-03T15:31:17;12.60;38.70
43520;DHT22;46848;51.980;5.918;2023-04-03T15:33:42;12.50;39.00
43520;DHT22;46848;51.980;5.918;2023-04-03T15:36:08;12.50;39.50
43520;DHT22;46848;51.980;5.918;2023-04-03T15:38:34;12.40;38.50
43520;DHT22;46848;51.980;5.918;2023-04-03T15:41:00;12.30;39.10
43520;DHT22;46848;51.980;5.918;2023-04-03T15:43:26;12.40;39.30
43520;DHT22;46848;51.980;5.918;2023-04-03T15:45:52;12.40;39.80
43520;DHT22;46848;51.980;5.918;2023-04-03T15:48:21;12.50;39.70
43520;DHT22;46848;51.980;5.918;2023-04-03T15:50:47;12.50;39.70
43520;DHT22;46848;51.980;5.918;2023-04-03T15:53:12;12.60;39.70
43520;DHT22;46848;51.980;5.918;2023-04-03T15:55:38;12.50;38.30
43520;DHT22;46848;51.980;5.918;2023-04-03T15:58:04;12.30;38.80
43520;DHT22;46848;51.980;5.918;2023-04-03T16:00:31;12.20;39.20
43520;DHT22;46848;51.980;5.918;2023-04-03T16:03:04;12.20;40.00
43520;DHT22;46848;51.980;5.918;2023-04-03T16:05:31;11.90;39.10
43520;DHT22;46848;51.980;5.918;2023-04-03T16:07:59;11.90;40.20
43520;DHT22;46848;51.980;5.918;2023-04-03T16:10:26;11.80;40.10
43520;DHT22;46848;51.980;5.918;2023-04-03T16:12:51;11.70;40.60
43520;DHT22;46848;51.980;5.918;2023-04-03T16:15:17;11.70;40.30
43520;DHT22;46848;51.980;5.918;2023-04-03T16:17:43;11.60;41.00
43520;DHT22;46848;51.980;5.918;2023-04-03T16:20:11;11.70;40.90
43520;DHT22;46848;51.980;5.918;2023-04-03T16:22:41;11.60;41.10
43520;DHT22;46848;51.980;5.918;2023-04-03T16:25:09;11.60;41.10
43520;DHT22;46848;51.980;5.918;2023-04-03T16:27:35;11.50;41.00
43520;DHT22;46848;51.980;5.918;2023-04-03T16:30:03;11.30;41.30
43520;DHT22;46848;51.980;5.918;2023-04-03T16:32:30;11.40;42.00
43520;DHT22;46848;51.980;5.918;2023-04-03T16:34:57;11.50;41.40
43520;DHT22;46848;51.980;5.918;2023-04-03T16:37:23;11.50;41.90
43520;DHT22;46848;51.980;5.918;2023-04-03T16:39:49;11.40;41.60
43520;DHT22;46848;51.980;5.918;2023-04-03T16:42:15;11.50;42.00
43520;DHT22;46848;51.980;5.918;2023-04-03T16:44:41;11.50;41.10
43520;DHT22;46848;51.980;5.918;2023-04-03T16:47:07;11.40;41.50
43520;DHT22;46848;51.980;5.918;2023-04-03T16:49:34;11.30;42.10
43520;DHT22;46848;51.980;5.918;2023-04-03T16:52:02;11.30;42.10
43520;DHT22;46848;51.980;5.918;2023-04-03T16:54:28;11.30;41.60
43520;DHT22;46848;51.980;5.918;2023-04-03T16:56:53;11.10;41.60
43520;DHT22;46848;51.980;5.918;2023-04-03T16:59:19;10.90;40.80
43520;DHT22;46848;51.980;5.918;2023-04-03T17:01:45;10.90;41.60
43520;DHT22;46848;51.980;5.918;2023-04-03T17:04:11;10.70;42.00
43520;DHT22;46848;51.980;5.918;2023-04-03T17:06:38;10.80;42.00
43520;DHT22;46848;51.980;5.918;2023-04-03T17:09:04;10.70;42.20
43520;DHT22;46848;51.980;5.918;2023-04-03T17:11:31;10.70;42.70
43520;DHT22;46848;51.980;5.918;2023-04-03T17:13:57;10.70;42.70
43520;DHT22;46848;51.980;5.918;2023-04-03T17:16:24;10.70;43.00
43520;DHT22;46848;51.980;5.918;2023-04-03T17:18:50;10.60;43.10
43520;DHT22;46848;51.980;5.918;2023-04-03T17:21:17;10.60;43.20
43520;DHT22;46848;51.980;5.918;2023-04-03T17:23:46;10.40;43.60
43520;DHT22;46848;51.980;5.918;2023-04-03T17:26:12;10.30;43.80
43520;DHT22;46848;51.980;5.918;2023-04-03T17:28:38;10.40;43.80
43520;DHT22;46848;51.980;5.918;2023-04-03T17:31:06;10.40;43.80
43520;DHT22;46848;51.980;5.918;2023-04-03T17:33:32;10.30;43.30
43520;DHT22;46848;51.980;5.918;2023-04-03T17:36:00;10.20;43.80
43520;DHT22;46848;51.980;5.918;2023-04-03T17:38:32;10.20;43.90